Time;durP1;ratioP1;P1;durP2;ratioP2;P2;SDS_P1;SDS_P2;PMS_P1;PMS_P2;Temp;Humidity;BMP_temperature;BMP_pressure;BME280_temperature;BME280_humidity;BME280_pressure;Samples;Min_cycle;Max_cycle;Signal;HPM_P1;HPM_P2
2023/08/04 05:55:08;;;;;;;4.35;2.75;;;;;;;;;;10583016;28;20144;-86
2023/08/04 06:00:25;;;;;;;6.18;2.20;;;;;;;;;;10587206;22;20036;-85
2023/08/04 06:05:28;;;;;;;12.55;3.88;;;;;;;;;;10576798;28;20016;-84
2023/08/04 06:10:30;;;;;;;5.93;2.95;;;;;;;;;;10583863;28;20031;-86
2023/08/04 06:15:42;;;;;;;6.13;2.45;;;;;;;;;;10598629;28;20043;-86
2023/08/04 06:20:47;;;;;;;6.72;2.50;;;;;;;;;;10581278;28;20036;-85
2023/08/04 06:25:50;;;;;;;4.15;2.35;;;;;;;;;;10571018;28;20032;-86
2023/08/04 06:30:56;;;;;;;4.40;2.80;;;;;;;;;;10558517;28;20036;-85
2023/08/04 06:35:58;;;;;;;3.78;2.30;;;;;;;;;;10573980;28;20603;-85
2023/08/04 06:41:02;;;;;;;7.88;3.42;;;;;;;;;;10572600;28;20047;-86
2023/08/04 06:46:04;;;;;;;6.55;3.45;;;;;;;;;;10572207;28;20019;-85
2023/08/04 06:51:06;;;;;;;8.90;3.75;;;;;;;;;;10570025;28;20028;-86
2023/08/04 06:56:31;;;;;;;6.43;4.00;;;;;;;;;;10568692;28;20138;-85
2023/08/04 07:01:34;;;;;;;6.90;3.15;;;;;;;;;;10543965;28;20039;-83
2023/08/04 07:06:36;;;;;;;3.50;1.60;;;;;;;;;;10538452;28;20118;-83
2023/08/04 07:11:37;;;;;;;3.80;2.28;;;;;;;;;;10539418;28;20047;-84
2023/08/04 07:16:38;;;;;;;5.13;2.22;;;;;;;;;;10541107;28;20394;-83
2023/08/04 07:21:39;;;;;;;4.68;2.85;;;;;;;;;;10541630;28;20040;-82
2023/08/04 07:26:40;;;;;;;5.53;3.97;;;;;;;;;;10540632;28;20086;-83
2023/08/04 07:31:41;;;;;;;6.60;3.47;;;;;;;;;;10537770;28;20121;-83
2023/08/04 07:36:42;;;;;;;7.80;5.70;;;;;;;;;;10553778;28;20123;-82
2023/08/04 07:41:43;;;;;;;16.45;7.30;;;;;;;;;;10533957;28;20087;-85
2023/08/04 07:46:44;;;;;;;11.25;7.28;;;;;;;;;;10559409;28;20068;-83
2023/08/04 07:51:46;;;;;;;13.02;7.55;;;;;;;;;;10564339;28;20024;-83
2023/08/04 07:56:50;;;;;;;9.98;6.88;;;;;;;;;;10544937;28;20039;-83
2023/08/04 08:01:51;;;;;;;8.82;5.90;;;;;;;;;;10540037;28;20083;-83
2023/08/04 08:06:52;;;;;;;7.63;4.72;;;;;;;;;;10542825;28;20028;-83
2023/08/04 08:11:53;;;;;;;9.35;5.05;;;;;;;;;;10543155;28;20097;-83
2023/08/04 08:16:54;;;;;;;8.98;4.40;;;;;;;;;;10539673;28;20059;-83
2023/08/04 08:22:06;;;;;;;5.90;3.75;;;;;;;;;;10539202;28;20080;-85
2023/08/04 08:27:07;;;;;;;8.27;3.72;;;;;;;;;;10546527;28;20040;-83
2023/08/04 08:32:08;;;;;;;7.45;3.58;;;;;;;;;;10542189;28;20055;-84
2023/08/04 08:37:09;;;;;;;6.32;3.45;;;;;;;;;;10557873;28;20489;-83
2023/08/04 08:42:10;;;;;;;5.25;3.85;;;;;;;;;;10537002;28;20047;-84
2023/08/04 08:47:12;;;;;;;7.40;3.45;;;;;;;;;;10540688;28;20031;-83
2023/08/04 08:52:13;;;;;;;5.18;3.05;;;;;;;;;;10539349;28;20119;-85
2023/08/04 08:57:15;;;;;;;9.13;3.30;;;;;;;;;;10540078;28;20034;-84
2023/08/04 09:02:16;;;;;;;4.88;2.72;;;;;;;;;;10535927;28;20093;-84
2023/08/04 09:07:17;;;;;;;5.93;2.97;;;;;;;;;;10534540;28;20028;-83
2023/08/04 09:17:57;;;;;;;4.43;2.63;;;;;;;;;;10558045;28;20028;-84
2023/08/04 09:22:58;;;;;;;6.47;3.28;;;;;;;;;;10538389;28;20428;-83
2023/08/04 09:28:14;;;;;;;4.95;2.42;;;;;;;;;;10540814;28;20032;-84
2023/08/04 09:33:24;;;;;;;5.00;3.10;;;;;;;;;;10563969;28;20043;-84
2023/08/04 09:38:25;;;;;;;4.40;2.30;;;;;;;;;;10572025;28;20051;-85
2023/08/04 09:43:27;;;;;;;4.63;2.65;;;;;;;;;;10539610;28;20016;-84
2023/08/04 09:48:29;;;;;;;4.00;2.10;;;;;;;;;;10557992;28;20181;-84
2023/08/04 09:53:30;;;;;;;4.47;3.00;;;;;;;;;;10539450;28;20105;-86
2023/08/04 09:58:31;;;;;;;11.35;8.45;;;;;;;;;;10556499;28;20430;-84
2023/08/04 10:03:37;;;;;;;4.60;3.05;;;;;;;;;;10537232;28;20050;-84
2023/08/04 10:08:40;;;;;;;5.72;2.92;;;;;;;;;;10539085;28;20123;-85
2023/08/04 10:13:44;;;;;;;15.65;11.63;;;;;;;;;;10529982;28;20024;-82
2023/08/04 10:18:55;;;;;;;20.33;17.58;;;;;;;;;;10550951;28;20028;-80
2023/08/04 10:24:00;;;;;;;5.45;3.78;;;;;;;;;;10549921;28;20084;-81
2023/08/04 10:29:04;;;;;;;4.57;2.72;;;;;;;;;;10535541;28;20058;-80
2023/08/04 10:34:23;;;;;;;6.03;3.28;;;;;;;;;;10536128;28;20040;-80
2023/08/04 10:39:32;;;;;;;3.83;2.85;;;;;;;;;;10536606;28;20027;-81
2023/08/04 10:44:48;;;;;;;5.70;2.13;;;;;;;;;;10537642;28;20070;-81
2023/08/04 10:49:53;;;;;;;3.47;2.55;;;;;;;;;;10551966;28;20027;-81
2023/08/04 10:54:55;;;;;;;3.47;2.53;;;;;;;;;;10584849;28;20044;-81
2023/08/04 10:59:56;;;;;;;4.38;2.72;;;;;;;;;;10562610;28;20089;-83
2023/08/04 11:04:58;;;;;;;3.95;2.70;;;;;;;;;;10536117;28;20035;-81
2023/08/04 11:10:04;;;;;;;4.88;2.70;;;;;;;;;;10536090;28;20024;-82
2023/08/04 11:15:10;;;;;;;4.57;2.38;;;;;;;;;;10536214;28;20081;-82
2023/08/04 11:20:15;;;;;;;4.75;2.78;;;;;;;;;;10517846;28;20021;-82
2023/08/04 11:25:16;;;;;;;3.72;2.28;;;;;;;;;;10534885;28;20057;-82
2023/08/04 11:30:17;;;;;;;4.28;2.33;;;;;;;;;;10537808;28;20028;-82
2023/08/04 11:35:18;;;;;;;3.65;2.08;;;;;;;;;;10533887;28;20492;-81
2023/08/04 11:40:20;;;;;;;3.47;1.55;;;;;;;;;;10558538;28;20027;-80
2023/08/04 11:51:05;;;;;;;3.25;2.00;;;;;;;;;;10556087;28;20016;-82
2023/08/04 11:56:08;;;;;;;3.17;1.88;;;;;;;;;;10534821;28;20055;-81
2023/08/04 12:01:28;;;;;;;3.40;2.05;;;;;;;;;;10536636;28;20028;-84
2023/08/04 12:06:30;;;;;;;5.18;4.30;;;;;;;;;;10542587;28;20067;-84
2023/08/04 12:11:31;;;;;;;3.17;1.95;;;;;;;;;;10541903;28;20040;-84
2023/08/04 12:16:32;;;;;;;4.57;2.25;;;;;;;;;;10541820;28;20024;-84
2023/08/04 12:21:33;;;;;;;24.50;22.15;;;;;;;;;;10541404;28;20040;-84
2023/08/04 12:26:34;;;;;;;2.65;1.80;;;;;;;;;;10558804;28;20458;-86
2023/08/04 12:31:36;;;;;;;3.45;2.00;;;;;;;;;;10552655;28;20023;-85
2023/08/04 12:36:38;;;;;;;2.83;1.70;;;;;;;;;;10563855;28;20052;-85
2023/08/04 12:41:41;;;;;;;3.10;2.28;;;;;;;;;;10570305;28;20553;-83
2023/08/04 12:46:47;;;;;;;4.53;2.97;;;;;;;;;;10551170;28;20020;-86
2023/08/04 12:51:53;;;;;;;4.45;2.30;;;;;;;;;;10545449;28;20032;-83
2023/08/04 12:56:54;;;;;;;4.55;2.58;;;;;;;;;;10545993;28;20024;-84
2023/08/04 13:01:56;;;;;;;3.45;2.40;;;;;;;;;;10540468;28;20039;-82
2023/08/04 13:07:00;;;;;;;3.95;2.30;;;;;;;;;;10548197;28;20036;-83
2023/08/04 13:12:01;;;;;;;3.63;2.00;;;;;;;;;;10543002;28;20024;-82
2023/08/04 13:17:03;;;;;;;2.85;1.90;;;;;;;;;;10540703;28;20028;-84
2023/08/04 13:22:04;;;;;;;2.20;1.50;;;;;;;;;;10522750;28;20032;-84
2023/08/04 13:27:08;;;;;;;3.10;1.40;;;;;;;;;;10558930;28;20063;-83
2023/08/04 13:32:09;;;;;;;3.08;1.90;;;;;;;;;;10542604;28;20027;-82
2023/08/04 13:37:10;;;;;;;2.63;1.67;;;;;;;;;;10542851;28;20050;-84
2023/08/04 13:42:11;;;;;;;2.65;1.45;;;;;;;;;;10551743;28;20036;-82
2023/08/04 13:47:12;;;;;;;2.92;1.70;;;;;;;;;;10586304;28;20015;-82
2023/08/04 13:52:13;;;;;;;2.05;1.42;;;;;;;;;;10566741;28;20035;-82
2023/08/04 13:57:15;;;;;;;2.90;1.30;;;;;;;;;;10563761;28;20043;-82
2023/08/04 14:02:27;;;;;;;3.88;1.10;;;;;;;;;;10577415;28;20008;-85
2023/08/04 14:07:30;;;;;;;1.25;0.70;;;;;;;;;;10562940;28;20111;-84
2023/08/04 14:12:32;;;;;;;1.85;1.50;;;;;;;;;;10568654;28;20032;-86
2023/08/04 14:17:33;;;;;;;2.05;1.00;;;;;;;;;;10568186;28;20074;-86
2023/08/04 14:28:47;;;;;;;1.95;1.08;;;;;;;;;;10566006;28;20058;-87
2023/08/04 14:33:48;;;;;;;2.97;1.10;;;;;;;;;;10555878;28;20020;-86
2023/08/04 14:38:50;;;;;;;1.27;0.90;;;;;;;;;;10561469;28;20035;-84
2023/08/04 14:43:58;;;;;;;1.25;0.90;;;;;;;;;;10538771;28;20081;-84
2023/08/04 14:48:59;;;;;;;2.58;1.10;;;;;;;;;;10574543;28;20030;-86
2023/08/04 14:54:04;;;;;;;3.35;1.30;;;;;;;;;;10576891;28;20020;-84
2023/08/04 14:59:05;;;;;;;2.50;1.00;;;;;;;;;;10554649;28;20485;-85
2023/08/04 15:04:06;;;;;;;2.30;1.60;;;;;;;;;;10551494;28;20035;-85
2023/08/04 15:09:09;;;;;;;2.72;1.27;;;;;;;;;;10549258;28;20036;-83
2023/08/04 15:14:11;;;;;;;2.55;1.30;;;;;;;;;;10552760;28;20024;-85
2023/08/04 15:19:12;;;;;;;1.88;1.00;;;;;;;;;;10544011;28;20440;-85
2023/08/04 15:24:13;;;;;;;2.70;0.93;;;;;;;;;;10544086;28;20055;-86
2023/08/04 15:29:14;;;;;;;4.22;1.40;;;;;;;;;;10544629;28;20039;-85
2023/08/04 15:34:15;;;;;;;2.17;0.98;;;;;;;;;;10545563;28;20046;-86
2023/08/04 15:39:16;;;;;;;3.83;1.48;;;;;;;;;;10583436;28;20016;-84
2023/08/04 15:44:17;;;;;;;3.50;1.65;;;;;;;;;;10557799;28;20472;-85
2023/08/04 15:49:18;;;;;;;2.72;1.27;;;;;;;;;;10537277;28;20095;-84
2023/08/04 15:54:19;;;;;;;2.35;1.30;;;;;;;;;;10543230;28;20347;-84
2023/08/04 15:59:20;;;;;;;2.15;1.30;;;;;;;;;;10543452;28;20036;-84
2023/08/04 16:04:21;;;;;;;2.30;1.23;;;;;;;;;;10550169;28;20043;-83
2023/08/04 16:09:22;;;;;;;2.08;1.40;;;;;;;;;;10548669;28;20040;-83
2023/08/04 16:14:23;;;;;;;2.85;1.30;;;;;;;;;;10550163;28;20028;-82
2023/08/04 16:19:24;;;;;;;3.58;1.10;;;;;;;;;;10548585;28;20031;-83
2023/08/04 16:24:25;;;;;;;1.60;1.00;;;;;;;;;;10543256;28;20120;-83
2023/08/04 16:29:26;;;;;;;3.55;1.55;;;;;;;;;;10538184;28;20051;-86
2023/08/04 16:34:27;;;;;;;3.15;1.13;;;;;;;;;;10540707;28;20119;-85
2023/08/04 16:39:30;;;;;;;3.22;1.50;;;;;;;;;;10540497;28;20097;-86
2023/08/04 16:44:31;;;;;;;2.03;1.13;;;;;;;;;;10542076;28;20125;-85
2023/08/04 16:49:32;;;;;;;6.53;1.35;;;;;;;;;;10545900;28;20043;-85
2023/08/04 16:54:33;;;;;;;5.07;1.20;;;;;;;;;;10538240;28;20016;-85
2023/08/04 16:59:34;;;;;;;1.98;1.10;;;;;;;;;;10544076;28;20028;-85
2023/08/04 17:04:35;;;;;;;3.35;1.20;;;;;;;;;;10580707;28;20016;-85
2023/08/04 17:09:36;;;;;;;2.50;1.13;;;;;;;;;;10550319;28;20047;-85
2023/08/04 17:14:37;;;;;;;3.30;1.40;;;;;;;;;;10539444;28;20062;-86
2023/08/04 17:19:39;;;;;;;2.58;1.30;;;;;;;;;;10539386;28;20051;-85
2023/08/04 17:24:40;;;;;;;2.83;1.25;;;;;;;;;;10538950;28;20044;-85
2023/08/04 17:29:41;;;;;;;2.70;1.80;;;;;;;;;;10537346;28;20480;-86
2023/08/04 17:34:44;;;;;;;2.83;1.35;;;;;;;;;;10539047;28;20049;-86
2023/08/04 17:39:45;;;;;;;2.58;1.30;;;;;;;;;;10538970;28;20066;-86
2023/08/04 17:44:46;;;;;;;2.92;1.60;;;;;;;;;;10542183;28;20055;-85
2023/08/04 17:49:49;;;;;;;2.60;1.20;;;;;;;;;;10542522;28;20104;-86
2023/08/04 17:54:51;;;;;;;3.00;1.20;;;;;;;;;;10555934;28;20007;-85
